Time;durP1;ratioP1;P1;durP2;ratioP2;P2;SDS_P1;SDS_P2;PMS_P1;PMS_P2;Temp;Humidity;BMP_temperature;BMP_pressure;BME280_temperature;BME280_humidity;BME280_pressure;Samples;Min_cycle;Max_cycle;Signal;HPM_P1;HPM_P2
2023/11/11 00:01:30;;;;;;;11.40;4.27;;;26.30;65.80;;;;;;5054354;28;20183;-71
2023/11/11 00:03:58;;;;;;;13.83;4.50;;;26.20;66.90;;;;;;5055720;28;20244;-73
2023/11/11 00:06:25;;;;;;;10.10;3.90;;;26.30;66.80;;;;;;5055665;28;20649;-74
2023/11/11 00:08:53;;;;;;;12.27;3.80;;;26.40;66.30;;;;;;5054640;28;20194;-72
2023/11/11 00:11:20;;;;;;;8.93;3.77;;;26.50;66.60;;;;;;5044146;28;20222;-72
2023/11/11 00:13:47;;;;;;;14.53;3.67;;;26.60;65.40;;;;;;5049490;28;20226;-74
2023/11/11 00:16:15;;;;;;;12.07;4.43;;;26.60;65.80;;;;;;5046465;28;20693;-72
2023/11/11 00:18:42;;;;;;;14.67;3.50;;;26.50;66.30;;;;;;5050581;28;20341;-73
2023/11/11 00:21:11;;;;;;;13.10;3.90;;;26.60;65.30;;;;;;5053053;28;20187;-74
2023/11/11 00:23:39;;;;;;;11.23;3.80;;;26.80;65.30;;;;;;5051728;28;20282;-72
2023/11/11 00:26:06;;;;;;;12.63;3.73;;;26.80;64.80;;;;;;5054485;28;20203;-70
2023/11/11 00:28:40;;;;;;;15.33;3.87;;;26.50;65.00;;;;;;5055145;28;20180;-74
2023/11/11 00:31:10;;;;;;;10.87;3.70;;;26.60;65.70;;;;;;5054553;28;20188;-73
2023/11/11 00:33:38;;;;;;;10.50;3.60;;;26.80;65.40;;;;;;5051508;28;20192;-71
2023/11/11 00:36:06;;;;;;;10.47;4.17;;;27.00;64.70;;;;;;5050902;28;20204;-73
2023/11/11 00:38:36;;;;;;;8.53;3.70;;;26.80;65.20;;;;;;5048947;28;20579;-74
2023/11/11 00:41:03;;;;;;;7.87;3.50;;;27.00;64.70;;;;;;5046064;28;20196;-74
2023/11/11 00:43:31;;;;;;;10.30;4.00;;;27.30;64.20;;;;;;5053642;28;20184;-73
2023/11/11 00:45:59;;;;;;;8.37;3.53;;;27.10;63.80;;;;;;5041513;28;20191;-74
2023/11/11 00:48:26;;;;;;;9.60;3.50;;;27.10;63.70;;;;;;5044143;28;20670;-73
2023/11/11 00:50:53;;;;;;;12.13;3.53;;;27.00;63.10;;;;;;5053122;28;20190;-75
2023/11/11 00:53:20;;;;;;;9.97;3.40;;;27.00;64.00;;;;;;5051364;28;20184;-71
2023/11/11 00:55:48;;;;;;;12.30;3.20;;;26.90;64.40;;;;;;5043972;28;20977;-74
2023/11/11 00:58:15;;;;;;;12.13;3.80;;;27.10;64.60;;;;;;5054011;28;20176;-73
2023/11/11 01:00:43;;;;;;;15.47;3.83;;;27.10;64.20;;;;;;5046672;28;20552;-73
2023/11/11 01:03:12;;;;;;;5.80;2.97;;;27.20;63.20;;;;;;5046316;28;20275;-74
2023/11/11 01:05:41;;;;;;;11.37;3.90;;;27.30;63.60;;;;;;5046744;28;20222;-74
2023/11/11 01:08:09;;;;;;;9.93;3.40;;;27.50;62.10;;;;;;5051992;28;20184;-75
2023/11/11 01:10:37;;;;;;;12.13;4.13;;;27.30;62.90;;;;;;5044874;28;20211;-73
2023/11/11 01:13:06;;;;;;;8.97;3.40;;;27.20;63.80;;;;;;5054719;28;20206;-73
2023/11/11 01:15:34;;;;;;;12.80;3.50;;;27.50;62.80;;;;;;5052982;28;20255;-74
2023/11/11 01:18:02;;;;;;;8.63;3.10;;;27.60;62.40;;;;;;5050990;28;20226;-73
2023/11/11 01:20:29;;;;;;;6.77;3.07;;;27.80;61.30;;;;;;5052248;28;20180;-72
2023/11/11 01:22:57;;;;;;;12.00;3.20;;;27.70;61.30;;;;;;5051867;28;20190;-72
2023/11/11 01:25:26;;;;;;;12.03;3.30;;;27.80;61.50;;;;;;5054819;28;20255;-74
2023/11/11 01:27:53;;;;;;;9.17;3.03;;;27.80;60.80;;;;;;5053047;28;20247;-74
2023/11/11 01:30:20;;;;;;;6.77;2.50;;;27.70;62.00;;;;;;5054419;28;20184;-72
2023/11/11 01:32:48;;;;;;;7.10;2.80;;;27.60;62.00;;;;;;5054611;28;20188;-74
2023/11/11 01:35:15;;;;;;;10.33;3.07;;;27.80;61.40;;;;;;5054642;28;20184;-73
2023/11/11 01:37:42;;;;;;;7.43;3.00;;;27.90;61.10;;;;;;5054024;28;20686;-76
2023/11/11 01:40:10;;;;;;;10.47;2.93;;;27.60;61.30;;;;;;5054580;28;20514;-73
2023/11/11 01:42:41;;;;;;;9.63;2.40;;;27.80;60.70;;;;;;5054545;28;20188;-76
2023/11/11 01:45:12;;;;;;;14.30;3.33;;;27.70;61.20;;;;;;5053202;28;20532;-71
2023/11/11 01:47:39;;;;;;;8.77;2.90;;;28.20;60.40;;;;;;5065371;28;20644;-73
2023/11/11 01:50:09;;;;;;;11.17;3.30;;;28.10;60.60;;;;;;5055078;28;20184;-74
2023/11/11 01:52:37;;;;;;;14.63;3.00;;;28.40;59.70;;;;;;5054206;28;20184;-73
2023/11/11 01:55:07;;;;;;;10.03;3.03;;;28.50;58.80;;;;;;5054344;28;20199;-73
2023/11/11 01:57:35;;;;;;;10.23;3.17;;;28.60;58.80;;;;;;5053670;28;20224;-74
2023/11/11 02:00:12;;;;;;;8.93;2.70;;;28.40;58.90;;;;;;5054287;28;20172;-77
2023/11/11 02:02:40;;;;;;;8.37;2.63;;;28.50;58.70;;;;;;5053856;28;20241;-73
2023/11/11 02:05:20;;;;;;;13.67;2.90;;;28.30;59.60;;;;;;5054631;28;20182;-71
2023/11/11 02:07:47;;;;;;;6.73;3.03;;;28.30;59.10;;;;;;5053902;28;20258;-73
2023/11/11 02:10:15;;;;;;;7.90;2.50;;;28.40;58.90;;;;;;5040231;28;20207;-75
2023/11/11 02:12:43;;;;;;;5.80;2.50;;;28.70;57.90;;;;;;5053593;28;20214;-74
2023/11/11 02:15:11;;;;;;;9.97;2.53;;;28.70;58.30;;;;;;5053555;28;20184;-74
2023/11/11 02:17:38;;;;;;;8.70;2.60;;;28.60;58.30;;;;;;5053488;28;20208;-71
2023/11/11 02:20:11;;;;;;;12.13;2.73;;;28.80;57.90;;;;;;5053543;28;20181;-74
2023/11/11 02:22:42;;;;;;;11.17;2.77;;;28.80;57.60;;;;;;5053384;28;20238;-73
2023/11/11 02:25:09;;;;;;;8.27;2.57;;;29.00;57.40;;;;;;5053487;28;20638;-77
2023/11/11 02:27:37;;;;;;;9.87;2.67;;;28.90;56.80;;;;;;5053349;28;20190;-74
2023/11/11 02:30:11;;;;;;;10.17;2.63;;;28.70;57.60;;;;;;5053578;28;20689;-74
2023/11/11 02:32:38;;;;;;;6.20;2.20;;;28.80;57.40;;;;;;5053525;28;20180;-76
2023/11/11 02:35:06;;;;;;;8.23;2.40;;;28.90;57.00;;;;;;5053687;28;20569;-74
2023/11/11 02:37:34;;;;;;;12.20;2.53;;;29.20;56.70;;;;;;5052848;28;20248;-75
2023/11/11 02:40:01;;;;;;;8.97;2.30;;;29.30;56.20;;;;;;5053506;28;20183;-75
2023/11/11 02:42:28;;;;;;;13.40;2.67;;;29.30;55.30;;;;;;5053238;28;20267;-73
2023/11/11 02:44:55;;;;;;;9.93;2.47;;;28.80;56.20;;;;;;5053603;28;20191;-73
2023/11/11 02:47:23;;;;;;;8.30;2.47;;;29.20;55.90;;;;;;5049325;28;20203;-73
2023/11/11 02:49:50;;;;;;;11.17;2.90;;;29.40;55.40;;;;;;5050599;28;20267;-73
2023/11/11 02:52:18;;;;;;;10.53;2.77;;;29.10;55.60;;;;;;5052784;28;20646;-72
2023/11/11 02:54:45;;;;;;;9.07;2.40;;;29.30;55.40;;;;;;5046664;28;20194;-74
2023/11/11 02:57:13;;;;;;;8.70;2.08;;;29.30;56.00;;;;;;5053122;28;20226;-75
2023/11/11 02:59:40;;;;;;;9.40;2.57;;;29.20;55.40;;;;;;5052970;28;20187;-78
2023/11/11 03:02:08;;;;;;;10.37;3.00;;;29.00;56.20;;;;;;5052975;28;20184;-75
2023/11/11 03:04:41;;;;;;;10.63;2.57;;;29.30;55.20;;;;;;5049180;28;20187;-74
2023/11/11 03:07:08;;;;;;;5.20;2.47;;;29.20;55.80;;;;;;5045110;28;20180;-75
2023/11/11 03:09:43;;;;;;;7.63;3.10;;;29.30;55.00;;;;;;5050123;28;20176;-73
2023/11/11 03:12:11;;;;;;;14.63;2.43;;;29.10;55.50;;;;;;5047541;28;20233;-72
2023/11/11 03:14:40;;;;;;;8.40;2.40;;;29.20;55.90;;;;;;5042809;28;20241;-74
2023/11/11 03:17:08;;;;;;;7.78;2.67;;;29.70;54.50;;;;;;5049381;28;20235;-74
2023/11/11 03:19:35;;;;;;;7.70;2.30;;;29.60;54.80;;;;;;5047661;28;20191;-74
2023/11/11 03:22:02;;;;;;;9.25;2.65;;;29.70;53.70;;;;;;5049046;28;20176;-76
2023/11/11 03:24:30;;;;;;;8.38;2.30;;;29.80;53.70;;;;;;5049596;28;20179;-74
2023/11/11 03:26:58;;;;;;;8.03;2.20;;;30.20;52.90;;;;;;5041773;28;20202;-71
2023/11/11 03:29:25;;;;;;;10.00;2.95;;;29.80;53.80;;;;;;5037354;28;20207;-77
2023/11/11 03:31:53;;;;;;;9.30;2.47;;;29.80;53.40;;;;;;5052000;28;20184;-75
2023/11/11 03:34:20;;;;;;;10.15;2.45;;;29.80;54.00;;;;;;5044907;28;20265;-75
2023/11/11 03:36:47;;;;;;;9.25;2.50;;;30.30;53.10;;;;;;5053061;28;20254;-73
2023/11/11 03:39:14;;;;;;;8.07;2.37;;;30.60;51.30;;;;;;5064609;28;20219;-73
2023/11/11 03:41:42;;;;;;;7.95;2.40;;;29.80;53.40;;;;;;5050320;28;20187;-73
2023/11/11 03:44:09;;;;;;;10.02;2.63;;;30.00;53.10;;;;;;5058644;28;20188;-75
2023/11/11 03:46:36;;;;;;;10.48;2.50;;;30.00;52.80;;;;;;5048802;28;20192;-74
2023/11/11 03:49:05;;;;;;;10.25;2.40;;;30.00;52.50;;;;;;5051715;28;20279;-72
2023/11/11 03:51:32;;;;;;;7.18;2.10;;;30.00;52.80;;;;;;5051815;28;20183;-76
2023/11/11 03:54:00;;;;;;;9.90;2.92;;;29.40;53.70;;;;;;5040960;28;20177;-74
2023/11/11 03:56:27;;;;;;;9.48;2.45;;;29.40;54.00;;;;;;5039356;28;20227;-72
2023/11/11 03:58:54;;;;;;;11.13;2.33;;;29.60;53.40;;;;;;5051656;28;20207;-72
2023/11/11 04:01:22;;;;;;;8.15;2.05;;;29.70;53.60;;;;;;5051218;28;20176;-73
2023/11/11 04:03:49;;;;;;;11.35;2.38;;;29.70;53.00;;;;;;5051737;28;20197;-71
2023/11/11 04:06:16;;;;;;;16.87;3.00;;;29.60;53.10;;;;;;5041996;28;20177;-73
2023/11/11 04:08:43;;;;;;;7.47;2.30;;;29.80;52.60;;;;;;5052028;28;20179;-72
2023/11/11 04:11:11;;;;;;;10.70;2.83;;;29.40;53.10;;;;;;5039818;28;20192;-72
2023/11/11 04:13:42;;;;;;;13.03;2.80;;;29.20;53.80;;;;;;5051770;28;20187;-73
2023/11/11 04:16:10;;;;;;;9.43;2.30;;;29.30;53.60;;;;;;5050706;28;20188;-71
2023/11/11 04:18:38;;;;;;;9.60;2.53;;;29.50;52.60;;;;;;5060331;28;20184;-71
2023/11/11 04:21:06;;;;;;;7.23;1.97;;;29.40;53.40;;;;;;5052292;28;20175;-72
2023/11/11 04:23:34;;;;;;;9.53;2.20;;;29.30;53.30;;;;;;5064222;28;20183;-73
2023/11/11 04:26:01;;;;;;;8.93;2.20;;;29.50;52.90;;;;;;5057558;28;20634;-72
2023/11/11 04:28:28;;;;;;;8.13;2.30;;;29.70;52.20;;;;;;5065041;28;20261;-74
2023/11/11 04:30:56;;;;;;;7.17;2.27;;;29.80;51.80;;;;;;5038651;28;20191;-73
2023/11/11 04:33:24;;;;;;;6.63;2.20;;;29.70;52.00;;;;;;5052370;28;20176;-75
2023/11/11 04:35:51;;;;;;;9.63;2.47;;;29.60;52.20;;;;;;5061342;28;20172;-72
2023/11/11 04:38:20;;;;;;;7.70;2.10;;;29.60;52.40;;;;;;5069762;28;20689;-74
2023/11/11 04:40:49;;;;;;;6.20;2.07;;;29.80;52.80;;;;;;5056561;28;21054;-71
2023/11/11 04:43:18;;;;;;;12.07;2.83;;;30.50;50.90;;;;;;5074070;28;20163;-74
2023/11/11 04:45:46;;;;;;;8.45;2.30;;;30.30;50.50;;;;;;5055150;28;20195;-76
2023/11/11 04:48:14;;;;;;;7.40;2.13;;;30.10;51.30;;;;;;5061861;28;20182;-73
2023/11/11 04:50:42;;;;;;;10.02;2.63;;;29.90;51.80;;;;;;5069110;28;20182;-74
2023/11/11 04:53:09;;;;;;;9.95;2.45;;;30.30;50.40;;;;;;5058833;28;20182;-74
2023/11/11 04:55:36;;;;;;;12.75;2.28;;;30.60;50.70;;;;;;5059892;28;20255;-71
2023/11/11 04:58:04;;;;;;;9.77;2.33;;;30.30;50.50;;;;;;5075695;28;20214;-72
2023/11/11 05:00:31;;;;;;;9.20;2.10;;;30.30;50.50;;;;;;5053931;28;20172;-75
2023/11/11 05:03:00;;;;;;;11.32;2.45;;;30.40;50.40;;;;;;5058344;28;20278;-73
2023/11/11 05:05:28;;;;;;;11.85;2.70;;;30.30;50.20;;;;;;5070116;28;20184;-72
2023/11/11 05:07:55;;;;;;;8.75;2.33;;;30.20;50.90;;;;;;5053773;28;20183;-73
2023/11/11 05:10:23;;;;;;;9.65;2.50;;;30.60;49.80;;;;;;5056184;28;20234;-73
2023/11/11 05:12:53;;;;;;;13.63;2.72;;;30.90;48.70;;;;;;5053792;28;20180;-73
2023/11/11 05:15:23;;;;;;;10.40;2.75;;;30.10;50.20;;;;;;5057307;28;20258;-72
2023/11/11 05:17:51;;;;;;;10.38;2.70;;;30.00;50.30;;;;;;5068378;28;20212;-69
2023/11/11 05:20:18;;;;;;;7.43;3.20;;;30.20;50.60;;;;;;5051627;28;20503;-73
2023/11/11 05:22:46;;;;;;;14.63;7.03;;;30.30;50.70;;;;;;5051509;28;20191;-73
2023/11/11 05:25:13;;;;;;;10.55;4.20;;;29.90;51.30;;;;;;5085956;28;20171;-72
2023/11/11 05:27:41;;;;;;;11.98;3.58;;;30.60;49.80;;;;;;5067174;28;20188;-77
2023/11/11 05:30:08;;;;;;;8.93;2.50;;;30.80;49.20;;;;;;5054062;28;20180;-76
2023/11/11 05:32:36;;;;;;;10.75;2.70;;;30.70;49.20;;;;;;5052881;28;20214;-71
2023/11/11 05:35:05;;;;;;;11.82;2.75;;;30.50;49.30;;;;;;5053646;28;20326;-73
2023/11/11 05:37:33;;;;;;;13.10;2.72;;;30.70;48.60;;;;;;5043259;28;20607;-74
2023/11/11 05:40:00;;;;;;;10.10;2.72;;;30.70;49.00;;;;;;5048949;28;20203;-69
2023/11/11 05:42:27;;;;;;;12.23;2.42;;;30.50;49.20;;;;;;5050592;28;20191;-73
2023/11/11 06:20:48;;;;;;;9.13;2.83;;;29.10;52.10;;;;;;4532100;23;20243;-74
2023/11/11 06:23:16;;;;;;;17.80;3.17;;;29.40;52.00;;;;;;4917121;29;20191;-76
2023/11/11 06:25:43;;;;;;;12.63;2.77;;;28.60;53.40;;;;;;4935485;29;20654;-76
2023/11/11 06:28:10;;;;;;;12.53;3.60;;;28.80;53.50;;;;;;4935653;29;20171;-75
2023/11/11 06:30:38;;;;;;;10.40;3.10;;;28.80;53.30;;;;;;4934448;29;20707;-74
2023/11/11 06:33:05;;;;;;;13.43;2.60;;;29.30;52.10;;;;;;4939999;29;20192;-75
2023/11/11 06:35:34;;;;;;;15.43;3.50;;;28.80;53.30;;;;;;4932105;29;20192;-74
2023/11/11 06:38:02;;;;;;;16.20;3.27;;;28.90;53.00;;;;;;4932309;29;20282;-76
2023/11/11 06:40:30;;;;;;;10.57;2.67;;;29.00;52.90;;;;;;4932788;29;20184;-76
2023/11/11 06:42:58;;;;;;;12.33;3.00;;;29.00;52.70;;;;;;4932613;29;20591;-75
2023/11/11 06:45:25;;;;;;;14.07;3.23;;;28.90;52.70;;;;;;4934912;29;20188;-76
2023/11/11 06:47:53;;;;;;;12.57;3.13;;;28.70;53.50;;;;;;4935379;29;20222;-77
2023/11/11 06:50:21;;;;;;;13.30;3.20;;;28.30;54.40;;;;;;4935324;29;20231;-78
2023/11/11 06:52:49;;;;;;;11.87;2.70;;;28.40;54.40;;;;;;4934219;29;20199;-78
2023/11/11 06:55:16;;;;;;;16.43;4.10;;;28.80;53.50;;;;;;4933365;29;20187;-78
2023/11/11 06:57:44;;;;;;;18.43;3.93;;;28.80;52.90;;;;;;4935766;29;20232;-77
2023/11/11 07:00:15;;;;;;;11.33;2.93;;;28.50;53.90;;;;;;4930444;29;20614;-75
2023/11/11 07:02:43;;;;;;;16.23;3.60;;;28.50;53.40;;;;;;4930025;29;20276;-77
2023/11/11 07:05:11;;;;;;;14.03;3.50;;;28.40;53.90;;;;;;4931906;29;21618;-75
2023/11/11 07:07:41;;;;;;;14.43;3.70;;;27.90;55.70;;;;;;4929894;29;20191;-72
2023/11/11 07:10:11;;;;;;;16.20;4.63;;;27.70;55.70;;;;;;4932689;29;20198;-73
2023/11/11 07:12:39;;;;;;;19.87;6.57;;;27.80;56.00;;;;;;4935527;29;20669;-78
2023/11/11 07:15:10;;;;;;;11.53;3.53;;;28.00;55.00;;;;;;4936500;29;20545;-76
2023/11/11 07:17:41;;;;;;;11.03;3.23;;;27.90;55.20;;;;;;4936060;29;20208;-78
2023/11/11 07:20:12;;;;;;;11.80;3.13;;;27.50;56.40;;;;;;4932332;29;20690;-76
2023/11/11 07:22:40;;;;;;;15.33;3.30;;;27.50;56.30;;;;;;4926919;29;20192;-79
2023/11/11 07:25:09;;;;;;;13.23;3.30;;;26.90;57.90;;;;;;4932608;29;20180;-79
2023/11/11 07:27:36;;;;;;;13.37;3.03;;;26.80;58.60;;;;;;4935883;29;20591;-75
2023/11/11 07:30:08;;;;;;;15.43;4.17;;;26.20;60.00;;;;;;4936459;29;20180;-78
2023/11/11 07:32:35;;;;;;;15.90;3.73;;;25.90;61.30;;;;;;4928464;29;20255;-76
2023/11/11 07:35:02;;;;;;;15.47;3.40;;;25.80;61.50;;;;;;4936086;29;20523;-73
2023/11/11 07:37:30;;;;;;;18.60;3.67;;;25.60;62.00;;;;;;4935907;29;20235;-79
2023/11/11 07:39:57;;;;;;;14.07;2.83;;;25.30;62.90;;;;;;4936009;29;20211;-82
2023/11/11 07:42:25;;;;;;;16.97;3.50;;;25.20;63.40;;;;;;4925823;29;20184;-71
2023/11/11 07:44:54;;;;;;;19.17;3.77;;;25.20;63.40;;;;;;4927124;29;20211;-77
2023/11/11 07:47:21;;;;;;;16.70;3.17;;;25.00;63.80;;;;;;4936276;29;20658;-72
2023/11/11 07:49:49;;;;;;;14.00;3.57;;;24.90;64.30;;;;;;4935949;29;20172;-72
2023/11/11 07:52:16;;;;;;;18.13;3.57;;;24.90;64.20;;;;;;4935997;29;20191;-76
2023/11/11 07:54:43;;;;;;;13.70;3.33;;;24.90;64.40;;;;;;4936020;29;20243;-74
2023/11/11 07:57:15;;;;;;;17.00;4.00;;;24.80;64.90;;;;;;4935793;29;20247;-72
2023/11/11 07:59:45;;;;;;;15.07;3.50;;;24.70;65.20;;;;;;4935661;29;20286;-74
2023/11/11 08:02:15;;;;;;;15.77;3.77;;;24.70;65.50;;;;;;4936058;29;20183;-75
2023/11/11 08:04:42;;;;;;;19.27;3.70;;;24.60;66.00;;;;;;4935628;29;20176;-75
2023/11/11 08:07:11;;;;;;;13.67;3.70;;;24.40;66.70;;;;;;4935766;29;20188;-74
2023/11/11 08:09:39;;;;;;;15.53;3.83;;;24.30;67.10;;;;;;4935654;29;20277;-75
2023/11/11 08:12:09;;;;;;;17.83;3.60;;;24.30;67.30;;;;;;4935324;29;20252;-71
2023/11/11 08:14:36;;;;;;;16.13;3.73;;;24.30;67.70;;;;;;4937808;29;20202;-74
2023/11/11 08:17:03;;;;;;;15.27;3.20;;;24.10;68.40;;;;;;4926029;29;20634;-72
2023/11/11 08:19:33;;;;;;;20.07;3.87;;;24.00;68.60;;;;;;4939419;29;20178;-75
2023/11/11 08:22:00;;;;;;;14.00;3.20;;;24.00;69.20;;;;;;4938851;29;20239;-72
2023/11/11 08:24:27;;;;;;;18.30;4.10;;;23.90;69.50;;;;;;4922003;29;20713;-72
2023/11/11 08:26:56;;;;;;;15.13;4.20;;;23.90;69.50;;;;;;4938970;29;20227;-73
2023/11/11 08:29:24;;;;;;;22.70;4.00;;;23.80;69.90;;;;;;4939349;29;20234;-73
2023/11/11 08:31:52;;;;;;;16.60;4.50;;;23.80;70.30;;;;;;4939021;29;20195;-75
2023/11/11 08:34:19;;;;;;;23.10;4.43;;;23.80;70.30;;;;;;4939192;29;20176;-73
2023/11/11 08:36:46;;;;;;;21.07;5.43;;;23.80;70.60;;;;;;4939125;29;20682;-73
2023/11/11 08:39:14;;;;;;;17.17;3.87;;;23.70;70.80;;;;;;4939227;29;20184;-75
2023/11/11 08:41:41;;;;;;;13.80;3.80;;;23.70;70.90;;;;;;4938765;29;20172;-78
2023/11/11 08:44:09;;;;;;;19.37;4.07;;;23.70;71.00;;;;;;4938769;29;20701;-80
2023/11/11 08:46:38;;;;;;;20.57;4.53;;;23.70;71.30;;;;;;4938887;29;20338;-81
2023/11/11 08:49:05;;;;;;;15.60;4.23;;;23.70;71.50;;;;;;4938828;29;20175;-74
2023/11/11 08:51:32;;;;;;;21.23;3.77;;;23.70;71.70;;;;;;4921861;29;20658;-73
2023/11/11 08:54:00;;;;;;;22.67;3.47;;;23.60;72.00;;;;;;4938809;29;20172;-75
2023/11/11 08:56:31;;;;;;;18.00;3.90;;;23.60;71.80;;;;;;4938536;29;20242;-74
2023/11/11 08:58:58;;;;;;;22.60;4.53;;;23.60;72.10;;;;;;4938576;29;20592;-82
2023/11/11 09:01:26;;;;;;;19.17;4.03;;;23.60;72.00;;;;;;4938723;29;20364;-77
2023/11/11 09:03:54;;;;;;;17.33;4.23;;;23.50;72.40;;;;;;4938456;29;20253;-78
2023/11/11 09:06:21;;;;;;;16.30;4.17;;;23.50;72.60;;;;;;4921656;29;20180;-78
2023/11/11 09:08:48;;;;;;;19.17;3.97;;;23.50;72.70;;;;;;4938656;29;20634;-74
2023/11/11 09:11:16;;;;;;;20.63;4.17;;;23.50;72.70;;;;;;4938507;29;20299;-74
2023/11/11 09:13:43;;;;;;;23.43;4.37;;;23.40;73.00;;;;;;4937797;29;20220;-73
2023/11/11 09:16:11;;;;;;;21.90;4.10;;;23.40;73.30;;;;;;4938474;29;20182;-77
2023/11/11 09:18:38;;;;;;;17.17;4.13;;;23.40;73.50;;;;;;4938447;29;20184;-75
2023/11/11 09:21:07;;;;;;;22.10;4.47;;;23.40;73.80;;;;;;4932580;29;20216;-74
2023/11/11 09:23:36;;;;;;;26.53;4.87;;;23.30;74.00;;;;;;4929205;29;20202;-78
2023/11/11 09:26:05;;;;;;;20.67;4.37;;;23.30;73.80;;;;;;4936494;29;20183;-75
2023/11/11 09:28:32;;;;;;;18.53;4.13;;;23.30;73.90;;;;;;4938140;29;20188;-74
2023/11/11 09:31:00;;;;;;;16.63;4.53;;;23.30;74.30;;;;;;4937945;29;20192;-75
2023/11/11 09:33:28;;;;;;;25.17;4.47;;;23.30;74.40;;;;;;4938288;29;20188;-73
2023/11/11 09:35:55;;;;;;;19.20;4.40;;;23.30;74.20;;;;;;4937763;29;20186;-76
2023/11/11 09:38:23;;;;;;;18.07;4.27;;;23.30;74.50;;;;;;4937956;29;20216;-74
2023/11/11 09:40:51;;;;;;;20.43;4.63;;;23.30;74.70;;;;;;4937941;29;20545;-78
2023/11/11 09:43:18;;;;;;;21.70;4.33;;;23.30;74.30;;;;;;4937468;29;20183;-72
2023/11/11 09:45:46;;;;;;;18.13;3.77;;;23.30;74.30;;;;;;4937281;29;20184;-77
2023/11/11 09:48:14;;;;;;;13.37;3.83;;;23.30;74.60;;;;;;4937633;29;20184;-78
2023/11/11 09:50:41;;;;;;;21.43;4.23;;;23.30;74.70;;;;;;4932781;29;20647;-81
2023/11/11 09:53:09;;;;;;;18.27;4.37;;;23.30;74.50;;;;;;4930185;29;20180;-75
2023/11/11 09:55:37;;;;;;;17.30;4.40;;;23.30;74.90;;;;;;4934759;29;20196;-78
2023/11/11 09:58:05;;;;;;;20.23;4.33;;;23.30;75.40;;;;;;4936186;29;20681;-75
2023/11/11 10:00:32;;;;;;;19.20;4.03;;;23.20;75.70;;;;;;4937663;29;20674;-77
2023/11/11 10:03:00;;;;;;;18.30;5.00;;;23.10;75.80;;;;;;4937350;29;20180;-75
2023/11/11 10:05:27;;;;;;;18.80;4.20;;;23.20;76.00;;;;;;4936228;29;20239;-76
2023/11/11 10:07:57;;;;;;;28.53;5.53;;;23.10;76.20;;;;;;4935822;29;20180;-73
2023/11/11 10:10:25;;;;;;;24.37;5.07;;;23.10;76.10;;;;;;4934594;29;20180;-78
2023/11/11 10:12:52;;;;;;;26.77;4.37;;;23.10;76.40;;;;;;4936480;29;20267;-74
2023/11/11 10:15:23;;;;;;;25.30;5.50;;;23.00;76.50;;;;;;4919592;29;20191;-73
2023/11/11 10:17:50;;;;;;;32.37;5.27;;;23.00;76.80;;;;;;4937016;29;20729;-78
2023/11/11 10:20:18;;;;;;;26.77;5.30;;;23.00;76.90;;;;;;4936718;29;20224;-78
2023/11/11 10:22:49;;;;;;;31.07;5.70;;;23.00;76.90;;;;;;4936104;29;20194;-76
2023/11/11 10:25:18;;;;;;;23.97;4.93;;;23.00;77.20;;;;;;4937009;29;20216;-75
2023/11/11 10:27:57;;;;;;;22.00;4.37;;;22.90;77.40;;;;;;4919358;29;20258;-76
2023/11/11 10:30:26;;;;;;;22.57;5.33;;;22.90;77.70;;;;;;4936802;29;20180;-75
2023/11/11 10:32:54;;;;;;;23.87;5.20;;;22.80;78.00;;;;;;4936619;29;20554;-79
2023/11/11 10:35:24;;;;;;;25.47;4.87;;;22.80;78.20;;;;;;4936298;29;20184;-80
2023/11/11 10:37:52;;;;;;;24.53;5.27;;;22.80;78.30;;;;;;4936561;29;20274;-83
2023/11/11 10:40:20;;;;;;;21.50;4.80;;;22.80;78.90;;;;;;4935172;29;20208;-75
2023/11/11 10:42:49;;;;;;;20.43;4.57;;;22.80;79.10;;;;;;4936417;29;20319;-74
2023/11/11 10:45:17;;;;;;;29.87;4.73;;;22.80;79.30;;;;;;4933795;29;20223;-77
2023/11/11 10:47:46;;;;;;;22.50;5.17;;;22.70;79.20;;;;;;4935214;29;20218;-74
2023/11/11 10:50:14;;;;;;;32.57;5.50;;;22.80;79.60;;;;;;4936538;29;20251;-75
2023/11/11 10:52:43;;;;;;;25.63;5.33;;;22.70;79.50;;;;;;4934373;29;20255;-78
2023/11/11 10:55:12;;;;;;;23.50;5.70;;;22.70;79.60;;;;;;4935630;29;20247;-77
2023/11/11 10:57:41;;;;;;;24.90;4.90;;;22.60;79.80;;;;;;4934542;29;20698;-75
2023/11/11 11:00:23;;;;;;;26.63;5.73;;;22.60;79.80;;;;;;4935245;29;20646;-76
2023/11/11 11:02:53;;;;;;;20.17;4.90;;;22.60;79.80;;;;;;4917695;29;20687;-74
2023/11/11 11:05:24;;;;;;;26.40;7.40;;;22.60;79.90;;;;;;4934468;29;20210;-76
2023/11/11 11:07:57;;;;;;;40.57;15.60;;;22.60;80.20;;;;;;4934125;29;20187;-76
2023/11/11 11:10:32;;;;;;;40.07;16.20;;;22.50;80.40;;;;;;4934193;29;20553;-77
2023/11/11 11:13:11;;;;;;;46.83;15.37;;;22.50;80.50;;;;;;4935019;29;20556;-78
2023/11/11 11:15:45;;;;;;;41.83;16.13;;;22.50;80.60;;;;;;4938637;29;20183;-74
2023/11/11 11:18:12;;;;;;;35.97;16.63;;;22.50;80.50;;;;;;4934703;29;20341;-75
2023/11/11 11:20:42;;;;;;;36.10;16.40;;;22.50;80.60;;;;;;4935972;29;20319;-77
2023/11/11 11:23:11;;;;;;;39.10;14.80;;;22.50;80.60;;;;;;4929263;29;20192;-76
2023/11/11 11:25:45;;;;;;;44.93;19.90;;;22.50;80.70;;;;;;4935591;29;20184;-77
2023/11/11 11:28:14;;;;;;;50.37;20.30;;;22.50;80.80;;;;;;4935952;29;20184;-78
2023/11/11 11:30:47;;;;;;;35.13;18.70;;;22.50;80.80;;;;;;4936641;29;20194;-77
2023/11/11 11:33:18;;;;;;;36.53;18.30;;;22.50;80.80;;;;;;4940112;29;20252;-77
2023/11/11 11:35:51;;;;;;;43.43;19.03;;;22.50;80.80;;;;;;4937907;29;20547;-77
2023/11/11 11:38:38;;;;;;;45.10;16.33;;;22.50;80.60;;;;;;4918404;29;20226;-78
2023/11/11 11:41:24;;;;;;;33.50;12.40;;;22.40;80.90;;;;;;4936105;29;20267;-77
2023/11/11 11:43:56;;;;;;;26.43;9.80;;;22.40;81.20;;;;;;4932907;29;20211;-78
2023/11/11 11:46:23;;;;;;;36.23;9.90;;;22.40;81.20;;;;;;4934567;29;20655;-74
2023/11/11 11:48:51;;;;;;;26.17;8.00;;;22.40;81.30;;;;;;4935211;29;20211;-78
2023/11/11 11:51:20;;;;;;;30.57;7.57;;;22.40;81.30;;;;;;4934985;29;20184;-74
2023/11/11 11:53:53;;;;;;;32.10;7.67;;;22.40;81.20;;;;;;4934434;29;20180;-78
2023/11/11 11:56:29;;;;;;;30.87;7.43;;;22.40;81.30;;;;;;4934594;29;20515;-78
2023/11/11 11:58:58;;;;;;;22.10;6.53;;;22.40;81.20;;;;;;4935031;29;20183;-75
2023/11/11 12:01:27;;;;;;;28.00;7.03;;;22.40;81.20;;;;;;4933072;29;20259;-75
2023/11/11 12:03:56;;;;;;;27.53;6.57;;;22.40;81.20;;;;;;4934956;29;20187;-77
2023/11/11 12:06:24;;;;;;;31.13;6.60;;;22.40;81.10;;;;;;4934566;29;20618;-77
2023/11/11 12:08:54;;;;;;;24.33;5.10;;;22.40;81.10;;;;;;4935191;29;20199;-77
2023/11/11 12:11:25;;;;;;;22.50;5.93;;;22.40;80.90;;;;;;4932768;29;20235;-77
2023/11/11 12:13:57;;;;;;;23.13;5.93;;;22.30;81.00;;;;;;4934675;29;20195;-77
2023/11/11 12:16:57;;;;;;;18.07;5.23;;;22.30;81.00;;;;;;4934084;29;20180;-78
2023/11/11 12:19:27;;;;;;;28.13;5.80;;;22.30;81.00;;;;;;4901202;29;20188;-75
2023/11/11 12:21:55;;;;;;;28.43;5.87;;;22.30;81.20;;;;;;4935032;29;20319;-77
2023/11/11 12:24:27;;;;;;;21.00;5.30;;;22.30;81.20;;;;;;4945507;29;20642;-78
2023/11/11 12:26:56;;;;;;;22.27;5.63;;;22.30;81.30;;;;;;4934427;29;20184;-77
2023/11/11 12:29:23;;;;;;;30.53;6.47;;;22.30;81.00;;;;;;4934834;29;20199;-73
2023/11/11 12:31:51;;;;;;;19.83;5.90;;;22.30;81.60;;;;;;4934381;29;20199;-76
2023/11/11 12:34:22;;;;;;;28.27;6.10;;;22.30;81.70;;;;;;4935201;29;20184;-77
2023/11/11 12:36:54;;;;;;;21.87;5.43;;;22.30;81.80;;;;;;4933453;29;20666;-75
2023/11/11 12:39:22;;;;;;;32.00;6.70;;;22.30;81.70;;;;;;4933865;29;20192;-75
2023/11/11 12:41:51;;;;;;;23.07;5.87;;;22.30;81.50;;;;;;4934035;29;20181;-74
2023/11/11 12:44:23;;;;;;;28.03;5.90;;;22.30;81.40;;;;;;4934884;29;20192;-76
2023/11/11 12:46:52;;;;;;;26.27;6.23;;;22.30;81.40;;;;;;4912192;29;20193;-76
2023/11/11 12:49:24;;;;;;;20.37;6.27;;;22.30;81.40;;;;;;4928893;29;20279;-73
2023/11/11 12:51:55;;;;;;;23.97;7.00;;;22.40;81.50;;;;;;4935042;29;20267;-80
2023/11/11 12:54:33;;;;;;;24.90;6.67;;;22.40;81.10;;;;;;4935225;29;20184;-75
2023/11/11 12:57:01;;;;;;;22.93;6.50;;;22.40;81.20;;;;;;4935651;29;20204;-77
2023/11/11 12:59:28;;;;;;;35.83;7.47;;;22.40;81.40;;;;;;4935179;29;20539;-80
2023/11/11 13:02:06;;;;;;;27.00;6.43;;;22.40;81.30;;;;;;4937297;29;20709;-78
2023/11/11 13:04:34;;;;;;;29.70;7.10;;;22.30;81.40;;;;;;4939106;29;20176;-77
2023/11/11 13:07:01;;;;;;;24.43;6.87;;;22.30;81.60;;;;;;4938756;29;20195;-74
2023/11/11 13:09:42;;;;;;;21.40;6.83;;;22.30;81.70;;;;;;4937599;29;20235;-78
2023/11/11 13:12:09;;;;;;;25.87;6.30;;;22.30;82.00;;;;;;4936706;29;20176;-78
2023/11/11 13:14:37;;;;;;;23.13;6.33;;;22.20;82.30;;;;;;4938146;29;20227;-76
2023/11/11 13:17:04;;;;;;;24.10;6.80;;;22.20;82.30;;;;;;4936292;29;20222;-78
2023/11/11 13:19:34;;;;;;;26.20;5.90;;;22.20;82.50;;;;;;4938097;29;20184;-81
2023/11/11 13:22:04;;;;;;;28.00;6.30;;;22.20;82.60;;;;;;4935229;29;20224;-77